Time,TemperatureF,DewpointF,PressureIn,WindDirection,WindDirectionDegrees,WindSpeedMPH,WindSpeedGustMPH,Humidity,HourlyPrecipIn,Conditions,Clouds,dailyrainin,SoftwareType,DateUTC
2014-02-03 00:05:00,39.4,39.1,29.83,WNW,292,0.0,-999.0,99,-99.99,,,0.00,Acu-Link.com,2014-02-03 08:05:00,
2014-02-03 00:20:00,38.8,38.5,29.82,WNW,292,0.0,-999.0,99,-99.99,,,0.00,Acu-Link.com,2014-02-03 08:20:00,
2014-02-03 00:35:00,38.3,38.0,29.81,ESE,112,0.0,-999.0,99,-99.99,,,0.00,Acu-Link.com,2014-02-03 08:35:00,
2014-02-03 00:50:00,37.8,37.5,29.81,ESE,112,0.0,-999.0,99,-99.99,,,0.00,Acu-Link.com,2014-02-03 08:50:00,
2014-02-03 01:06:00,36.9,36.6,29.82,SE,135,0.0,-999.0,99,-99.99,,,0.00,Acu-Link.com,2014-02-03 09:06:00,
2014-02-03 01:21:00,36.3,36.0,29.82,ESE,112,0.0,-999.0,99,-99.99,,,0.00,Acu-Link.com,2014-02-03 09:21:00,
2014-02-03 01:36:00,36.0,35.7,29.83,ESE,112,0.0,-999.0,99,-99.99,,,0.00,Acu-Link.com,2014-02-03 09:36:00,
2014-02-03 01:52:00,35.4,35.1,29.83,SE,135,0.0,-999.0,99,-99.99,,,0.01,Acu-Link.com,2014-02-03 09:52:00,
2014-02-03 02:07:00,34.9,34.6,29.83,ESE,112,0.0,-999.0,99,-99.99,,,0.01,Acu-Link.com,2014-02-03 10:07:00,
2014-02-03 02:22:00,34.5,34.2,29.84,SE,135,0.0,-999.0,99,-99.99,,,0.01,Acu-Link.com,2014-02-03 10:22:00,
2014-02-03 02:38:00,34.3,34.0,29.84,ESE,112,0.0,-999.0,99,-99.99,,,0.01,Acu-Link.com,2014-02-03 10:38:00,
2014-02-03 02:53:00,34.2,33.9,29.84,SE,135,0.0,-999.0,99,-99.99,,,0.01,Acu-Link.com,2014-02-03 10:53:00,
2014-02-03 03:08:00,34.5,34.2,29.84,ESE,112,0.0,-999.0,99,-99.99,,,0.01,Acu-Link.com,2014-02-03 11:08:00,
2014-02-03 03:23:00,34.7,34.4,29.84,ESE,112,0.0,-999.0,99,-99.99,,,0.01,Acu-Link.com,2014-02-03 11:23:00,
2014-02-03 03:38:00,35.8,35.5,29.83,ESE,112,0.0,-999.0,99,-99.99,,,0.01,Acu-Link.com,2014-02-03 11:38:00,
2014-02-03 03:53:00,36.0,35.7,29.83,ESE,112,0.0,-999.0,99,-99.99,,,0.01,Acu-Link.com,2014-02-03 11:53:00,
2014-02-03 04:09:00,36.1,35.8,29.83,ESE,112,0.0,-999.0,99,-99.99,,,0.01,Acu-Link.com,2014-02-03 12:09:00,
2014-02-03 04:24:00,36.3,36.0,29.84,SSE,157,0.0,-999.0,99,-99.99,,,0.01,Acu-Link.com,2014-02-03 12:24:00,
2014-02-03 04:39:00,37.0,36.7,29.84,South,180,0.0,-999.0,99,-99.99,,,0.01,Acu-Link.com,2014-02-03 12:39:00,
2014-02-03 04:55:00,37.0,36.7,29.84,SE,135,0.0,-999.0,99,-99.99,,,0.01,Acu-Link.com,2014-02-03 12:55:00,
2014-02-03 05:10:00,37.0,36.7,29.84,SSE,157,0.0,-999.0,99,-99.99,,,0.01,Acu-Link.com,2014-02-03 13:10:00,
2014-02-03 05:25:00,36.7,36.4,29.84,ESE,112,0.0,-999.0,99,-99.99,,,0.01,Acu-Link.com,2014-02-03 13:25:00,
2014-02-03 05:41:00,36.5,36.2,29.84,ESE,112,0.0,-999.0,99,-99.99,,,0.01,Acu-Link.com,2014-02-03 13:41:00,
2014-02-03 05:56:00,36.7,36.4,29.84,ESE,112,0.0,-999.0,99,-99.99,,,0.01,Acu-Link.com,2014-02-03 13:56:00,
2014-02-03 06:11:00,36.3,36.0,29.85,ESE,112,0.0,-999.0,99,-99.99,,,0.01,Acu-Link.com,2014-02-03 14:11:00,
2014-02-03 06:26:00,35.6,35.3,29.85,ESE,112,0.0,-999.0,99,-99.99,,,0.01,Acu-Link.com,2014-02-03 14:26:00,
2014-02-03 06:42:00,34.7,34.4,29.85,East,90,0.0,-999.0,99,-99.99,,,0.01,Acu-Link.com,2014-02-03 14:42:00,
2014-02-03 06:57:00,34.2,33.9,29.86,East,90,0.0,-999.0,99,-99.99,,,0.01,Acu-Link.com,2014-02-03 14:57:00,
2014-02-03 07:12:00,33.8,33.5,29.86,ENE,67,0.0,-999.0,99,-99.99,,,0.01,Acu-Link.com,2014-02-03 15:12:00,
2014-02-03 07:27:00,33.4,33.1,29.87,ESE,112,0.0,-999.0,99,-99.99,,,0.01,Acu-Link.com,2014-02-03 15:27:00,
2014-02-03 07:43:00,33.3,33.0,29.87,ESE,112,0.0,-999.0,99,-99.99,,,0.01,Acu-Link.com,2014-02-03 15:43:00,
2014-02-03 07:58:00,33.3,33.0,29.87,SE,135,0.0,-999.0,99,-99.99,,,0.01,Acu-Link.com,2014-02-03 15:58:00,
2014-02-03 08:13:00,33.6,33.3,29.88,ESE,112,0.0,-999.0,99,-99.99,,,0.01,Acu-Link.com,2014-02-03 16:13:00,
2014-02-03 08:29:00,33.8,33.5,29.88,West,270,0.0,-999.0,99,-99.99,,,0.01,Acu-Link.com,2014-02-03 16:29:00,
2014-02-03 08:44:00,35.1,34.8,29.88,West,270,0.0,-999.0,99,-99.99,,,0.01,Acu-Link.com,2014-02-03 16:44:00,
2014-02-03 08:59:00,37.0,36.7,29.89,East,90,0.0,-999.0,99,-99.99,,,0.01,Acu-Link.com,2014-02-03 16:59:00,
2014-02-03 09:14:00,38.3,38.0,29.88,SSE,157,0.0,-999.0,99,-99.99,,,0.01,Acu-Link.com,2014-02-03 17:14:00,
2014-02-03 09:29:00,40.8,40.5,29.88,SE,135,0.0,-999.0,99,-99.99,,,0.01,Acu-Link.com,2014-02-03 17:29:00,
2014-02-03 09:44:00,42.3,42.0,29.88,SE,135,2.2,-999.0,99,-99.99,,,0.01,Acu-Link.com,2014-02-03 17:44:00,
2014-02-03 10:00:00,45.9,43.7,29.89,WSW,247,0.0,-999.0,92,-99.99,,,0.01,Acu-Link.com,2014-02-03 18:00:00,
2014-02-03 10:15:00,46.9,43.2,29.88,ESE,112,0.0,-999.0,87,-99.99,,,0.01,Acu-Link.com,2014-02-03 18:15:00,
2014-02-03 10:30:00,47.7,44.3,29.89,WNW,292,0.0,-999.0,88,-99.99,,,0.01,Acu-Link.com,2014-02-03 18:30:00,
2014-02-03 10:46:00,50.5,45.2,29.89,NW,315,0.0,-999.0,82,-99.99,,,0.01,Acu-Link.com,2014-02-03 18:46:00,
2014-02-03 11:01:00,50.5,44.2,29.88,ESE,112,2.2,-999.0,79,-99.99,,,0.01,Acu-Link.com,2014-02-03 19:01:00,
2014-02-03 11:16:00,52.2,44.2,29.88,NNE,22,0.0,-999.0,74,-99.99,,,0.01,Acu-Link.com,2014-02-03 19:16:00,
2014-02-03 11:32:00,53.6,43.3,29.87,ESE,112,2.7,-999.0,68,-99.99,,,0.01,Acu-Link.com,2014-02-03 19:32:00,
2014-02-03 11:47:00,55.4,45.8,29.87,SSE,157,2.2,-999.0,70,-99.99,,,0.01,Acu-Link.com,2014-02-03 19:47:00,
2014-02-03 12:02:00,56.3,44.3,29.86,NNW,337,2.2,-999.0,64,-99.99,,,0.01,Acu-Link.com,2014-02-03 20:02:00,
2014-02-03 12:17:00,53.6,42.1,29.86,WNW,292,2.2,-999.0,65,-99.99,,,0.01,Acu-Link.com,2014-02-03 20:17:00,
2014-02-03 12:32:00,54.9,42.1,29.85,SE,135,2.7,-999.0,62,-99.99,,,0.01,Acu-Link.com,2014-02-03 20:32:00,
2014-02-03 12:48:00,60.4,46.4,29.84,SSE,157,2.7,-999.0,60,-99.99,,,0.01,Acu-Link.com,2014-02-03 20:48:00,
2014-02-03 13:03:00,59.7,44.0,29.84,SSW,202,2.7,-999.0,56,-99.99,,,0.01,Acu-Link.com,2014-02-03 21:03:00,
2014-02-03 13:18:00,55.8,41.2,29.83,West,270,1.7,-999.0,58,-99.99,,,0.01,Acu-Link.com,2014-02-03 21:18:00,
2014-02-03 13:34:00,55.9,40.0,29.82,East,90,3.2,-999.0,55,-99.99,,,0.01,Acu-Link.com,2014-02-03 21:34:00,
2014-02-03 13:49:00,59.9,41.7,29.81,SE,135,1.7,-999.0,51,-99.99,,,0.01,Acu-Link.com,2014-02-03 21:49:00,
2014-02-03 14:05:00,58.8,41.2,29.81,North,0,0.0,-999.0,52,-99.99,,,0.01,Acu-Link.com,2014-02-03 22:05:00,
2014-02-03 14:20:00,55.9,40.9,29.80,WNW,292,1.7,-999.0,57,-99.99,,,0.01,Acu-Link.com,2014-02-03 22:20:00,
2014-02-03 14:35:00,55.8,40.3,29.80,SSE,157,0.0,-999.0,56,-99.99,,,0.01,Acu-Link.com,2014-02-03 22:35:00,
2014-02-03 14:50:00,56.8,39.4,29.79,East,90,1.7,-999.0,52,-99.99,,,0.01,Acu-Link.com,2014-02-03 22:50:00,
2014-02-03 15:05:00,58.5,38.9,29.79,NW,315,1.1,-999.0,48,-99.99,,,0.01,Acu-Link.com,2014-02-03 23:05:00,
2014-02-03 15:21:00,59.5,40.3,29.79,West,270,0.0,-999.0,49,-99.99,,,0.01,Acu-Link.com,2014-02-03 23:21:00,
2014-02-03 15:36:00,57.4,40.9,29.79,South,180,1.7,-999.0,54,-99.99,,,0.01,Acu-Link.com,2014-02-03 23:36:00,
2014-02-03 15:51:00,55.4,39.5,29.79,SW,225,1.7,-999.0,55,-99.99,,,0.01,Acu-Link.com,2014-02-03 23:51:00,
2014-02-03 16:06:00,55.2,41.1,29.79,WNW,292,0.0,-999.0,59,-99.99,,,0.01,Acu-Link.com,2014-02-04 00:06:00,
2014-02-03 16:22:00,54.7,40.2,29.80,West,270,2.7,-999.0,58,-99.99,,,0.01,Acu-Link.com,2014-02-04 00:22:00,
2014-02-03 16:37:00,55.0,40.5,29.79,SE,135,2.7,-999.0,58,-99.99,,,0.01,Acu-Link.com,2014-02-04 00:37:00,
2014-02-03 16:52:00,53.6,40.9,29.79,SSE,157,2.2,-999.0,62,-99.99,,,0.01,Acu-Link.com,2014-02-04 00:52:00,
2014-02-03 17:08:00,52.5,40.7,29.80,NW,315,0.0,-999.0,64,-99.99,,,0.01,Acu-Link.com,2014-02-04 01:08:00,
2014-02-03 17:23:00,50.5,40.7,29.81,ESE,112,0.0,-999.0,69,-99.99,,,0.01,Acu-Link.com,2014-02-04 01:23:00,
2014-02-03 17:38:00,49.3,40.7,29.81,NNW,337,0.0,-999.0,72,-99.99,,,0.01,Acu-Link.com,2014-02-04 01:38:00,
2014-02-03 17:53:00,48.2,40.7,29.82,SE,135,0.0,-999.0,75,-99.99,,,0.01,Acu-Link.com,2014-02-04 01:53:00,
2014-02-03 18:09:00,47.3,40.8,29.83,South,180,0.0,-999.0,78,-99.99,,,0.01,Acu-Link.com,2014-02-04 02:09:00,
2014-02-03 18:24:00,46.2,40.7,29.83,SE,135,0.0,-999.0,81,-99.99,,,0.01,Acu-Link.com,2014-02-04 02:24:00,
2014-02-03 18:40:00,45.1,40.6,29.83,ESE,112,0.0,-999.0,84,-99.99,,,0.01,Acu-Link.com,2014-02-04 02:40:00,
2014-02-03 18:55:00,43.9,40.3,29.83,ESE,112,0.0,-999.0,87,-99.99,,,0.01,Acu-Link.com,2014-02-04 02:55:00,
2014-02-03 19:11:00,43.0,40.3,29.84,SE,135,0.0,-999.0,90,-99.99,,,0.01,Acu-Link.com,2014-02-04 03:11:00,
2014-02-03 19:26:00,42.1,39.9,29.85,SE,135,0.0,-999.0,92,-99.99,,,0.01,Acu-Link.com,2014-02-04 03:26:00,
2014-02-03 19:41:00,41.2,39.6,29.85,SE,135,0.0,-999.0,94,-99.99,,,0.01,Acu-Link.com,2014-02-04 03:41:00,
2014-02-03 19:56:00,40.5,39.2,29.86,ESE,112,0.0,-999.0,95,-99.99,,,0.01,Acu-Link.com,2014-02-04 03:56:00,
2014-02-03 20:12:00,39.9,39.1,29.86,ESE,112,0.0,-999.0,97,-99.99,,,0.01,Acu-Link.com,2014-02-04 04:12:00,
2014-02-03 20:27:00,39.4,38.6,29.86,ESE,112,0.0,-999.0,97,-99.99,,,0.01,Acu-Link.com,2014-02-04 04:27:00,
2014-02-03 20:42:00,38.5,37.2,29.86,West,270,0.0,-999.0,95,-99.99,,,0.01,Acu-Link.com,2014-02-04 04:42:00,
2014-02-03 20:57:00,38.1,37.8,29.87,SE,135,0.0,-999.0,99,-99.99,,,0.01,Acu-Link.com,2014-02-04 04:57:00,
2014-02-03 21:12:00,37.6,37.1,29.87,NNE,22,0.0,-999.0,98,-99.99,,,0.01,Acu-Link.com,2014-02-04 05:12:00,
2014-02-03 21:28:00,37.0,36.7,29.87,ESE,112,0.0,-999.0,99,-99.99,,,0.01,Acu-Link.com,2014-02-04 05:28:00,
2014-02-03 21:43:00,36.5,36.2,29.87,SSW,202,0.0,-999.0,99,-99.99,,,0.01,Acu-Link.com,2014-02-04 05:43:00,
2014-02-03 21:58:00,36.3,36.0,29.87,ESE,112,0.0,-999.0,99,-99.99,,,0.01,Acu-Link.com,2014-02-04 05:58:00,
2014-02-03 22:14:00,35.6,35.3,29.88,South,180,0.0,-999.0,99,-99.99,,,0.01,Acu-Link.com,2014-02-04 06:14:00,
2014-02-03 22:29:00,35.4,35.1,29.88,South,180,0.0,-999.0,99,-99.99,,,0.01,Acu-Link.com,2014-02-04 06:29:00,
2014-02-03 22:44:00,34.9,34.6,29.89,WNW,292,0.0,-999.0,99,-99.99,,,0.01,Acu-Link.com,2014-02-04 06:44:00,
2014-02-03 22:59:00,34.7,34.4,29.89,SE,135,0.0,-999.0,99,-99.99,,,0.01,Acu-Link.com,2014-02-04 06:59:00,
2014-02-03 23:15:00,34.3,34.0,29.89,ESE,112,0.0,-999.0,99,-99.99,,,0.01,Acu-Link.com,2014-02-04 07:15:00,
2014-02-03 23:30:00,33.8,33.5,29.89,WSW,247,0.0,-999.0,99,-99.99,,,0.01,Acu-Link.com,2014-02-04 07:30:00,
2014-02-03 23:45:00,33.4,33.1,29.89,NNW,337,0.0,-999.0,99,-99.99,,,0.01,Acu-Link.com,2014-02-04 07:45:00,